Time;durP1;ratioP1;P1;durP2;ratioP2;P2;SDS_P1;SDS_P2;PMS_P1;PMS_P2;Temp;Humidity;BMP_temperature;BMP_pressure;BME280_temperature;BME280_humidity;BME280_pressure;Samples;Min_cycle;Max_cycle;Signal;HPM_P1;HPM_P2
2023/03/02 00:02:28;;;;;;;9.97;7.40;;;5.70;65.50;;;;;;4951839;28;20500;-82
2023/03/02 00:05:13;;;;;;;10.10;8.07;;;5.50;65.80;;;;;;4965212;28;20456;-84
2023/03/02 00:08:00;;;;;;;8.10;7.30;;;5.70;66.70;;;;;;4962523;28;20465;-83
2023/03/02 00:10:35;;;;;;;10.63;7.70;;;5.50;66.60;;;;;;4966770;28;20464;-83
2023/03/02 00:13:08;;;;;;;8.80;6.97;;;5.60;67.50;;;;;;4962754;28;20481;-84
2023/03/02 00:15:37;;;;;;;9.60;7.10;;;5.60;67.80;;;;;;4961019;28;20482;-84
2023/03/02 00:18:09;;;;;;;9.37;6.93;;;5.60;68.30;;;;;;4947843;28;20457;-83
2023/03/02 00:20:40;;;;;;;10.93;7.90;;;5.70;68.20;;;;;;4947910;28;20461;-83
2023/03/02 00:23:11;;;;;;;10.00;7.00;;;5.50;68.30;;;;;;4942870;28;22210;-83
2023/03/02 00:25:47;;;;;;;8.33;6.00;;;5.40;68.80;;;;;;4945069;28;20484;-82
2023/03/02 00:28:26;;;;;;;11.70;7.10;;;5.30;69.10;;;;;;4959134;28;20462;-82
2023/03/02 00:30:56;;;;;;;9.10;7.50;;;5.60;69.70;;;;;;4942784;28;20579;-83
2023/03/02 00:33:27;;;;;;;13.30;6.90;;;5.70;69.10;;;;;;4962973;28;20453;-82
2023/03/02 00:36:09;;;;;;;9.57;6.57;;;5.50;68.50;;;;;;4947763;28;21386;-84
2023/03/02 00:38:39;;;;;;;8.23;6.93;;;5.50;68.80;;;;;;4967803;28;20461;-85
2023/03/02 00:41:29;;;;;;;9.13;6.30;;;5.50;69.50;;;;;;4958253;29;22534;-82
2023/03/02 00:44:16;;;;;;;9.40;6.97;;;5.50;69.90;;;;;;4970843;28;20582;-82
2023/03/02 00:46:51;;;;;;;8.27;6.43;;;5.70;70.20;;;;;;4950663;28;21100;-83
2023/03/02 00:49:35;;;;;;;6.90;6.20;;;5.50;69.90;;;;;;4953391;28;21060;-83
2023/03/02 00:52:08;;;;;;;7.30;6.20;;;5.30;70.50;;;;;;4950217;28;20508;-84
2023/03/02 00:54:42;;;;;;;11.63;7.50;;;5.20;71.10;;;;;;4945881;28;20477;-83
2023/03/02 00:57:14;;;;;;;9.60;6.70;;;5.10;71.50;;;;;;4942501;28;20485;-84
2023/03/02 00:59:44;;;;;;;9.30;6.70;;;5.10;71.90;;;;;;4940718;28;20967;-83
2023/03/02 01:02:15;;;;;;;12.80;7.33;;;5.10;72.10;;;;;;4938282;28;20472;-83
2023/03/02 01:04:53;;;;;;;9.40;6.67;;;5.10;72.00;;;;;;4940317;28;20540;-81
2023/03/02 01:07:27;;;;;;;9.47;7.80;;;5.20;72.20;;;;;;4940654;28;20457;-84
2023/03/02 01:10:08;;;;;;;9.57;6.70;;;5.30;72.10;;;;;;4942350;28;20461;-84
2023/03/02 01:12:38;;;;;;;8.10;6.80;;;5.20;72.10;;;;;;4938622;28;22672;-82
2023/03/02 01:15:14;;;;;;;9.00;7.50;;;5.10;72.40;;;;;;4937412;28;20540;-83
2023/03/02 01:17:53;;;;;;;8.80;6.67;;;5.10;72.80;;;;;;4939065;28;20441;-82
2023/03/02 01:20:40;;;;;;;8.53;5.90;;;5.00;73.00;;;;;;4941466;28;20467;-83
2023/03/02 01:23:13;;;;;;;8.47;7.10;;;5.10;72.60;;;;;;4941006;28;20445;-82
2023/03/02 01:25:45;;;;;;;9.13;6.80;;;5.00;72.00;;;;;;4958551;28;20496;-83
2023/03/02 01:28:47;;;;;;;11.13;6.80;;;5.40;71.00;;;;;;4936585;28;20496;-84
2023/03/02 01:31:38;;;;;;;10.07;6.90;;;5.20;70.00;;;;;;4953185;28;20437;-83
2023/03/02 01:34:10;;;;;;;8.37;5.93;;;5.20;70.30;;;;;;4952588;28;20476;-85
2023/03/02 01:37:11;;;;;;;7.67;5.80;;;5.10;70.50;;;;;;4953148;28;20491;-82
2023/03/02 01:39:47;;;;;;;7.47;5.93;;;5.10;70.70;;;;;;4946529;28;20499;-83
2023/03/02 01:42:22;;;;;;;10.00;6.60;;;5.00;70.80;;;;;;4944800;28;20461;-83
2023/03/02 01:45:00;;;;;;;8.03;7.10;;;4.90;71.00;;;;;;4945690;28;20490;-82
2023/03/02 01:47:38;;;;;;;9.50;6.77;;;4.90;71.10;;;;;;4951015;28;20522;-83
2023/03/02 01:50:22;;;;;;;11.00;7.13;;;4.90;71.20;;;;;;4963670;28;20467;-84
2023/03/02 01:52:58;;;;;;;6.40;5.70;;;4.90;71.30;;;;;;4955001;28;20547;-83
2023/03/02 01:55:38;;;;;;;7.87;5.97;;;5.00;71.60;;;;;;4971070;28;20476;-83
2023/03/02 01:58:38;;;;;;;7.87;6.60;;;4.90;71.40;;;;;;4952853;28;20512;-83
2023/03/02 02:01:43;;;;;;;7.97;7.07;;;4.90;71.60;;;;;;4942707;28;20457;-82
2023/03/02 02:04:20;;;;;;;10.70;7.10;;;5.10;71.90;;;;;;4945314;28;20452;-83
2023/03/02 02:07:15;;;;;;;9.07;7.40;;;5.20;71.60;;;;;;4942058;28;20477;-84
2023/03/02 02:09:48;;;;;;;8.70;7.17;;;5.10;71.60;;;;;;4948663;28;20501;-84
2023/03/02 02:12:29;;;;;;;9.83;6.10;;;5.10;72.00;;;;;;4944944;28;20484;-84
2023/03/02 02:15:01;;;;;;;9.20;7.33;;;4.90;71.90;;;;;;4941296;28;20488;-84
2023/03/02 02:17:38;;;;;;;8.13;6.50;;;5.00;71.90;;;;;;4938683;28;20457;-83
2023/03/02 02:20:24;;;;;;;7.23;6.20;;;4.90;71.60;;;;;;4941799;28;20501;-83
2023/03/02 02:23:17;;;;;;;11.33;6.50;;;4.90;71.60;;;;;;4938448;28;20911;-84
2023/03/02 02:26:26;;;;;;;7.77;5.90;;;4.80;71.90;;;;;;4956578;28;20484;-82
2023/03/02 02:29:11;;;;;;;8.90;6.97;;;4.80;72.30;;;;;;4941152;28;20480;-83
2023/03/02 02:31:41;;;;;;;9.50;7.10;;;4.70;72.80;;;;;;4945417;28;20453;-84
2023/03/02 02:34:26;;;;;;;7.77;5.90;;;4.70;73.40;;;;;;4944255;28;20563;-83
2023/03/02 02:37:22;;;;;;;7.70;6.90;;;4.70;73.70;;;;;;4962248;28;20524;-83
2023/03/02 02:40:06;;;;;;;10.90;7.17;;;4.70;74.00;;;;;;4946195;28;21244;-83
2023/03/02 02:42:50;;;;;;;8.10;7.40;;;4.70;74.40;;;;;;4964245;28;20468;-83
2023/03/02 02:45:41;;;;;;;9.10;6.67;;;4.70;74.80;;;;;;4946404;28;20607;-85
2023/03/02 02:48:29;;;;;;;9.17;7.00;;;4.70;75.20;;;;;;4948080;28;20519;-84
2023/03/02 02:51:09;;;;;;;7.67;6.43;;;4.70;76.00;;;;;;4948965;28;20603;-84
2023/03/02 02:54:00;;;;;;;9.10;7.60;;;4.70;76.60;;;;;;4967658;28;20485;-84
2023/03/02 02:56:37;;;;;;;9.23;7.10;;;4.70;76.70;;;;;;4951846;28;20472;-82
2023/03/02 02:59:27;;;;;;;8.47;6.63;;;4.80;76.50;;;;;;4970879;28;20464;-83
2023/03/02 03:02:06;;;;;;;8.40;6.03;;;4.70;76.10;;;;;;4951647;28;20457;-83
2023/03/02 03:04:42;;;;;;;6.57;5.80;;;4.70;76.00;;;;;;4967482;28;20483;-83
2023/03/02 03:07:20;;;;;;;6.63;5.93;;;4.70;76.00;;;;;;4951331;28;20470;-85
2023/03/02 03:10:15;;;;;;;7.40;6.50;;;4.70;75.80;;;;;;4948884;28;20707;-83
2023/03/02 03:13:04;;;;;;;7.73;6.60;;;4.70;76.00;;;;;;4941524;28;21114;-84
2023/03/02 03:15:46;;;;;;;9.80;6.10;;;4.70;75.90;;;;;;4944622;28;20485;-85
2023/03/02 03:18:33;;;;;;;7.50;6.20;;;4.80;75.00;;;;;;4943065;28;20540;-84
2023/03/02 03:21:10;;;;;;;8.93;7.60;;;5.10;72.90;;;;;;4947158;28;20456;-83
2023/03/02 03:23:54;;;;;;;8.97;6.20;;;5.20;71.10;;;;;;4944515;28;20469;-84
2023/03/02 03:26:24;;;;;;;7.93;6.43;;;5.10;70.70;;;;;;4944330;28;21356;-82
2023/03/02 03:32:28;;;;;;;6.10;5.50;;;4.90;70.80;;;;;;4941895;28;20547;-84
2023/03/02 03:35:07;;;;;;;10.23;6.70;;;4.80;71.40;;;;;;4941713;28;20481;-83
2023/03/02 03:37:44;;;;;;;9.97;7.00;;;4.90;71.90;;;;;;4940877;28;20552;-84
2023/03/02 03:40:20;;;;;;;9.00;6.60;;;4.70;71.90;;;;;;4944392;28;20456;-81
2023/03/02 03:43:15;;;;;;;;;;;;;;;;;;;;;
2023/03/02 03:46:03;;;;;;;8.73;6.60;;;4.60;72.60;;;;;;4943756;28;20491;-83
2023/03/02 03:48:38;;;;;;;8.50;7.17;;;4.60;73.30;;;;;;4943984;28;20520;-79
2023/03/02 03:51:19;;;;;;;10.80;7.50;;;4.50;73.90;;;;;;4943884;28;20464;-84
2023/03/02 03:54:06;;;;;;;9.90;7.43;;;4.50;74.80;;;;;;4944655;28;20728;-81
2023/03/02 03:56:50;;;;;;;7.90;6.13;;;4.50;75.50;;;;;;4935868;28;20501;-83
2023/03/02 03:59:28;;;;;;;9.53;6.90;;;4.40;76.00;;;;;;4960261;28;20936;-84
2023/03/02 04:02:06;;;;;;;7.80;6.67;;;4.60;76.00;;;;;;4953355;28;20441;-82
2023/03/02 04:07:39;;;;;;;9.47;7.47;;;4.50;75.90;;;;;;4958487;28;20464;-82
2023/03/02 04:10:11;;;;;;;9.67;7.73;;;4.40;76.30;;;;;;4963890;28;20576;-81
2023/03/02 04:12:52;;;;;;;8.70;6.80;;;4.40;76.70;;;;;;4944553;28;20485;-82
2023/03/02 04:15:27;;;;;;;8.00;6.70;;;4.30;76.80;;;;;;4943806;28;20486;-83
2023/03/02 04:18:13;;;;;;;9.03;7.47;;;4.30;77.00;;;;;;4947197;28;20478;-82
2023/03/02 04:20:54;;;;;;;8.13;6.20;;;4.30;77.00;;;;;;4957631;28;20449;-83
2023/03/02 04:23:35;;;;;;;10.83;7.13;;;4.40;76.80;;;;;;4965345;28;20492;-82
2023/03/02 04:26:09;;;;;;;12.07;7.23;;;4.60;76.70;;;;;;4963991;28;20552;-82
2023/03/02 04:28:49;;;;;;;8.40;6.67;;;4.40;76.50;;;;;;4950892;28;20476;-82
2023/03/02 04:31:25;;;;;;;12.23;7.93;;;4.40;76.80;;;;;;4952374;28;21018;-82
2023/03/02 04:34:29;;;;;;;9.37;6.80;;;4.40;77.00;;;;;;4939484;29;20492;-83
2023/03/02 04:37:06;;;;;;;10.97;7.67;;;4.30;77.20;;;;;;4948481;28;20508;-82
2023/03/02 04:39:46;;;;;;;12.97;8.10;;;4.40;77.70;;;;;;4946641;28;20484;-83
2023/03/02 04:42:23;;;;;;;9.90;6.80;;;4.30;77.70;;;;;;4944980;28;20452;-82
2023/03/02 04:47:27;;;;;;;7.70;6.77;;;4.20;78.10;;;;;;4930466;29;20490;-84
2023/03/02 04:53:36;;;;;;;9.23;6.77;;;4.20;78.80;;;;;;4935153;29;20507;-82
2023/03/02 04:56:28;;;;;;;8.27;6.50;;;4.20;79.10;;;;;;4950462;28;20508;-82
2023/03/02 04:59:26;;;;;;;9.30;7.33;;;4.20;79.30;;;;;;4964297;28;20461;-82
2023/03/02 05:02:19;;;;;;;9.47;6.60;;;4.20;79.50;;;;;;4932257;29;20466;-83
2023/03/02 05:04:54;;;;;;;13.60;7.53;;;4.10;79.70;;;;;;4932980;29;21036;-81
2023/03/02 05:07:34;;;;;;;8.87;7.30;;;4.10;79.70;;;;;;4936481;29;20466;-82
2023/03/02 05:10:19;;;;;;;10.17;7.50;;;4.10;79.50;;;;;;4933352;29;20465;-84
2023/03/02 05:13:01;;;;;;;9.00;7.37;;;4.20;79.80;;;;;;4932848;29;20501;-84
2023/03/02 05:15:56;;;;;;;8.70;7.27;;;4.10;80.10;;;;;;4936683;29;20469;-80
2023/03/02 05:18:48;;;;;;;9.50;6.80;;;4.10;80.40;;;;;;4939428;28;20469;-82
2023/03/02 05:24:25;;;;;;;9.33;7.17;;;4.40;80.10;;;;;;5005387;23;21601;-82
2023/03/02 05:27:35;;;;;;;11.10;8.10;;;4.60;78.80;;;;;;4917295;29;20465;-83
2023/03/02 05:30:51;;;;;;;8.83;7.10;;;4.70;77.80;;;;;;4926870;29;21616;-84
2023/03/02 05:34:19;;;;;;;10.20;6.90;;;4.60;78.00;;;;;;4871591;29;20492;-82
2023/03/02 05:40:18;;;;;;;11.53;7.77;;;4.40;80.30;;;;;;5033062;23;20512;-83
2023/03/02 05:43:25;;;;;;;9.40;7.50;;;4.40;81.10;;;;;;4945267;28;20477;-82
2023/03/02 05:46:20;;;;;;;9.60;7.00;;;4.30;81.20;;;;;;4946313;28;20538;-83
2023/03/02 05:49:10;;;;;;;9.37;6.90;;;4.10;81.70;;;;;;4952976;28;20445;-82
2023/03/02 05:52:04;;;;;;;9.73;7.40;;;4.00;82.60;;;;;;4967382;28;20469;-83
2023/03/02 05:57:17;;;;;;;10.23;7.07;;;3.80;83.70;;;;;;5421650;23;20497;-81
2023/03/02 06:00:19;;;;;;;8.37;6.37;;;3.80;83.80;;;;;;4938596;28;20531;-82
2023/03/02 06:03:31;;;;;;;9.80;6.60;;;3.80;83.80;;;;;;4872931;29;20472;-83
2023/03/02 06:06:37;;;;;;;9.60;6.90;;;3.90;83.40;;;;;;4879465;29;20563;-83
2023/03/02 06:09:23;;;;;;;7.50;6.60;;;4.10;82.40;;;;;;5608269;23;20991;-82
2023/03/02 06:14:49;;;;;;;9.57;7.63;;;4.10;81.10;;;;;;4932445;29;20493;-83
2023/03/02 06:23:42;;;;;;;11.40;6.87;;;4.00;79.70;;;;;;4891752;29;20491;-85
2023/03/02 06:29:13;;;;;;;9.60;6.43;;;4.00;79.40;;;;;;5010412;23;21028;-84
2023/03/02 06:32:32;;;;;;;;;;;;;;;;;;;;;
2023/03/02 06:38:49;;;;;;;8.53;6.67;;;4.10;80.60;;;;;;4910152;29;20454;-83
2023/03/02 06:41:39;;;;;;;6.87;5.50;;;4.10;81.20;;;;;;4908629;29;20474;-84
2023/03/02 06:44:29;;;;;;;11.50;6.90;;;4.30;81.20;;;;;;4908817;29;20482;-82
2023/03/02 06:47:09;;;;;;;8.00;6.60;;;4.30;80.30;;;;;;5064996;23;20506;-83
2023/03/02 06:49:58;;;;;;;11.37;7.33;;;4.20;79.90;;;;;;4970016;28;20539;-83
2023/03/02 06:52:35;;;;;;;10.27;6.50;;;4.20;79.90;;;;;;4969237;28;20468;-84
2023/03/02 06:55:26;;;;;;;;;;;;;;;;;;;;;
2023/03/02 06:58:37;;;;;;;10.90;6.30;;;4.20;79.70;;;;;;5023334;23;20492;-85
2023/03/02 07:01:34;;;;;;;9.17;6.03;;;4.20;79.30;;;;;;4916377;29;20517;-85
2023/03/02 07:07:39;;;;;;;8.20;6.80;;;4.20;78.40;;;;;;4979424;23;20543;-84
2023/03/02 07:10:30;;;;;;;8.33;6.10;;;4.30;78.70;;;;;;4904778;29;20766;-82
2023/03/02 07:13:17;;;;;;;8.50;6.53;;;4.80;77.60;;;;;;4920309;29;20574;-83
2023/03/02 07:16:35;;;;;;;9.93;7.13;;;4.70;76.60;;;;;;4900601;29;20574;-83
2023/03/02 07:22:28;;;;;;;8.83;6.90;;;4.90;76.80;;;;;;4935077;28;20461;-83
2023/03/02 07:24:59;;;;;;;11.97;6.60;;;5.10;76.80;;;;;;4926208;29;20476;-82
2023/03/02 07:28:12;;;;;;;8.77;6.57;;;5.00;75.90;;;;;;4928751;29;20537;-83
2023/03/02 07:31:13;;;;;;;11.23;6.60;;;5.10;76.60;;;;;;4913224;29;20450;-83
2023/03/02 07:34:23;;;;;;;11.73;6.73;;;7.90;75.80;;;;;;4937135;28;20494;-81
2023/03/02 07:37:00;;;;;;;10.07;6.20;;;10.80;61.50;;;;;;4923344;29;20461;-82
2023/03/02 07:40:10;;;;;;;7.70;6.50;;;11.90;53.90;;;;;;4930147;28;20538;-82
2023/03/02 07:43:40;;;;;;;;;;;;;;;;;;;;;
2023/03/02 07:50:14;;;;;;;8.27;6.83;;;14.50;46.20;;;;;;4951250;28;20440;-82
2023/03/02 07:52:44;;;;;;;8.73;7.67;;;16.90;43.60;;;;;;5008095;23;20553;-83
2023/03/02 07:55:25;;;;;;;9.50;7.83;;;17.50;41.90;;;;;;5050407;23;20516;-84
2023/03/02 07:57:55;;;;;;;8.83;7.77;;;16.90;39.70;;;;;;4948629;28;20441;-82
2023/03/02 08:00:38;;;;;;;9.50;7.27;;;15.20;40.80;;;;;;4944806;28;20831;-82
2023/03/02 08:03:13;;;;;;;9.60;7.40;;;13.90;42.80;;;;;;4949702;28;20473;-83
2023/03/02 08:08:39;;;;;;;10.30;7.50;;;10.70;46.20;;;;;;5753769;23;20566;-83
2023/03/02 08:14:21;;;;;;;;;;;;;;;;;;;;;
2023/03/02 08:17:15;;;;;;;8.20;7.37;;;11.00;49.70;;;;;;5218642;23;20514;-83
2023/03/02 08:19:44;;;;;;;10.10;6.77;;;10.70;49.20;;;;;;5402014;23;20505;-82
2023/03/02 08:22:15;;;;;;;10.50;8.43;;;9.80;50.30;;;;;;4968369;28;20478;-84
2023/03/02 08:24:44;;;;;;;12.70;8.60;;;9.10;51.60;;;;;;5058159;23;20503;-82
2023/03/02 08:27:22;;;;;;;8.30;7.17;;;8.50;52.80;;;;;;4974407;28;20448;-82
2023/03/02 08:29:49;;;;;;;7.60;6.83;;;7.70;53.60;;;;;;4971943;28;20459;-81
2023/03/02 08:32:17;;;;;;;10.50;6.73;;;7.40;55.20;;;;;;4966397;28;20472;-82
2023/03/02 08:34:54;;;;;;;10.07;8.33;;;7.50;56.30;;;;;;4957762;28;20861;-82
2023/03/02 08:37:28;;;;;;;11.50;8.87;;;7.20;56.30;;;;;;4973793;28;20439;-83
2023/03/02 08:42:38;;;;;;;12.97;7.23;;;6.80;58.00;;;;;;3935635;23;20500;-84
2023/03/02 08:45:19;;;;;;;14.43;8.10;;;6.70;58.50;;;;;;4942179;29;20490;-84
2023/03/02 08:53:31;;;;;;;11.13;8.53;;;7.30;58.30;;;;;;4952098;28;20487;-83
2023/03/02 08:56:01;;;;;;;12.00;8.07;;;7.40;58.10;;;;;;4967110;28;20492;-83
2023/03/02 08:58:31;;;;;;;11.37;8.03;;;7.20;58.20;;;;;;4953520;28;20464;-84
2023/03/02 09:06:14;;;;;;;10.77;8.37;;;6.70;58.90;;;;;;5132146;23;20549;-82
2023/03/02 09:09:07;;;;;;;15.80;9.13;;;7.20;59.40;;;;;;5161278;23;20510;-83
2023/03/02 09:11:37;;;;;;;10.67;7.40;;;7.10;58.80;;;;;;4952908;28;20473;-83
2023/03/02 09:16:48;;;;;;;11.27;8.20;;;7.40;57.70;;;;;;5243660;23;20591;-84
2023/03/02 09:19:17;;;;;;;9.77;7.40;;;7.60;57.60;;;;;;4946373;29;20467;-84
2023/03/02 09:21:44;;;;;;;11.80;8.47;;;7.60;56.80;;;;;;4957624;28;20473;-81
2023/03/02 09:24:16;;;;;;;11.93;7.73;;;7.20;56.70;;;;;;4948865;29;20454;-82
2023/03/02 09:26:47;;;;;;;11.13;8.50;;;7.10;57.50;;;;;;4950407;28;20968;-83
2023/03/02 09:29:14;;;;;;;9.97;7.70;;;7.40;57.50;;;;;;4958802;28;20432;-82
2023/03/02 09:34:27;;;;;;;9.63;7.20;;;7.10;57.70;;;;;;5151741;23;20492;-83
2023/03/02 09:36:57;;;;;;;9.23;7.70;;;7.00;57.80;;;;;;4967949;28;20477;-84
2023/03/02 09:39:26;;;;;;;9.97;8.00;;;7.00;58.20;;;;;;4952026;28;20498;-83
2023/03/02 09:42:25;;;;;;;11.00;8.30;;;7.60;57.80;;;;;;4950790;29;20481;-82
2023/03/02 09:45:30;;;;;;;10.53;7.90;;;7.50;57.10;;;;;;4948240;28;20505;-82
2023/03/02 09:48:13;;;;;;;10.10;7.03;;;7.60;56.50;;;;;;4947089;29;20463;-81
2023/03/02 09:51:19;;;;;;;8.10;6.53;;;7.40;56.90;;;;;;4949536;28;21572;-83
2023/03/02 09:54:03;;;;;;;11.90;7.63;;;7.60;57.40;;;;;;4954307;28;20484;-83
2023/03/02 09:56:44;;;;;;;7.93;6.77;;;7.60;57.10;;;;;;4952361;28;20508;-83
2023/03/02 09:59:22;;;;;;;10.00;7.87;;;8.00;56.80;;;;;;4954744;28;20462;-83
2023/03/02 10:02:00;;;;;;;10.43;8.10;;;8.30;56.60;;;;;;4972846;28;20535;-82
2023/03/02 10:04:38;;;;;;;9.40;7.43;;;9.60;56.30;;;;;;4952439;29;20452;-83
2023/03/02 10:07:32;;;;;;;8.30;7.30;;;11.10;52.90;;;;;;4958028;28;20461;-82
2023/03/02 10:10:17;;;;;;;9.53;7.93;;;13.00;48.60;;;;;;4955287;29;20465;-83
2023/03/02 10:13:13;;;;;;;9.80;7.93;;;14.00;46.50;;;;;;4958739;29;20437;-82
2023/03/02 10:15:50;;;;;;;12.93;9.87;;;14.50;44.50;;;;;;4956163;28;20489;-84
2023/03/02 10:18:38;;;;;;;12.07;7.57;;;14.80;43.50;;;;;;4955882;29;20468;-82
2023/03/02 10:21:20;;;;;;;11.73;8.73;;;14.00;42.70;;;;;;4956536;28;20469;-83
2023/03/02 10:24:02;;;;;;;10.47;7.83;;;13.30;43.90;;;;;;4972627;28;20461;-83
2023/03/02 10:26:44;;;;;;;9.80;8.60;;;12.80;45.00;;;;;;4958509;28;20556;-83
2023/03/02 10:29:49;;;;;;;10.63;8.77;;;12.80;44.90;;;;;;4961973;28;20555;-82
2023/03/02 10:32:32;;;;;;;10.37;8.17;;;12.20;45.50;;;;;;4960505;28;20460;-83
2023/03/02 10:35:13;;;;;;;9.60;8.30;;;12.10;46.30;;;;;;4955473;28;20567;-85
2023/03/02 10:37:41;;;;;;;9.33;8.33;;;12.40;45.90;;;;;;4953885;29;20457;-83
2023/03/02 10:40:40;;;;;;;9.73;8.10;;;11.90;45.90;;;;;;4951831;29;20456;-82
2023/03/02 10:43:37;;;;;;;8.30;7.00;;;11.90;46.20;;;;;;4941199;28;20464;-81
2023/03/02 10:46:09;;;;;;;9.70;8.40;;;11.40;46.90;;;;;;4955146;28;20747;-82
2023/03/02 10:48:56;;;;;;;11.30;7.80;;;11.30;47.60;;;;;;4971606;28;20460;-83
2023/03/02 10:51:33;;;;;;;10.50;8.17;;;11.40;47.80;;;;;;4954529;29;20532;-83
2023/03/02 10:54:17;;;;;;;10.60;7.47;;;11.10;47.50;;;;;;4956867;29;20488;-83
2023/03/02 10:56:54;;;;;;;10.57;8.53;;;10.70;48.00;;;;;;4960003;28;20468;-83
2023/03/02 10:59:28;;;;;;;9.80;8.10;;;10.50;48.60;;;;;;4965106;28;20519;-82
2023/03/02 11:02:06;;;;;;;12.50;8.03;;;10.30;49.50;;;;;;4981331;28;20437;-82
2023/03/02 11:05:03;;;;;;;9.47;8.47;;;10.80;50.10;;;;;;4964000;28;20438;-82
2023/03/02 11:07:33;;;;;;;11.10;8.87;;;10.80;49.50;;;;;;4955608;28;20571;-83
2023/03/02 11:10:18;;;;;;;19.30;15.30;;;10.80;50.40;;;;;;4964650;28;20445;-81
2023/03/02 11:12:47;;;;;;;11.00;7.33;;;11.20;50.00;;;;;;4963908;28;20448;-83
2023/03/02 11:15:20;;;;;;;9.70;8.17;;;10.90;49.10;;;;;;4962684;28;20497;-84
2023/03/02 11:18:05;;;;;;;8.30;7.23;;;10.60;49.30;;;;;;4963655;28;20487;-81
2023/03/02 11:20:40;;;;;;;11.63;7.57;;;10.30;49.80;;;;;;4962855;28;20527;-82
2023/03/02 11:23:34;;;;;;;11.43;8.03;;;10.70;50.90;;;;;;4963331;28;20460;-81
2023/03/02 11:26:13;;;;;;;12.37;8.97;;;10.90;51.60;;;;;;4960983;28;20467;-83
2023/03/02 11:29:05;;;;;;;13.00;8.30;;;11.00;51.10;;;;;;4977483;28;20437;-83
2023/03/02 11:31:55;;;;;;;9.13;7.40;;;11.30;50.20;;;;;;4975995;28;20485;-83
2023/03/02 11:34:40;;;;;;;12.33;9.07;;;11.20;49.60;;;;;;4962003;29;20517;-84
2023/03/02 11:37:20;;;;;;;11.77;9.07;;;10.90;49.80;;;;;;4963228;28;20449;-83
2023/03/02 11:39:47;;;;;;;13.50;8.17;;;10.80;50.20;;;;;;4959449;29;20455;-82
2023/03/02 11:42:31;;;;;;;11.50;9.00;;;10.60;50.30;;;;;;4959382;28;20532;-82
2023/03/02 11:45:28;;;;;;;11.20;8.23;;;10.60;50.60;;;;;;4960568;29;20465;-82
2023/03/02 11:48:11;;;;;;;11.07;8.63;;;10.50;51.00;;;;;;4960297;28;20460;-83
2023/03/02 11:50:52;;;;;;;10.73;9.07;;;10.60;51.30;;;;;;4959454;28;20475;-82
2023/03/02 11:53:20;;;;;;;17.00;8.27;;;10.70;51.40;;;;;;4961463;28;20472;-84
2023/03/02 11:55:49;;;;;;;10.17;8.00;;;10.70;51.30;;;;;;4958884;28;20556;-82
2023/03/02 11:58:22;;;;;;;9.80;7.97;;;10.60;51.10;;;;;;4959124;28;20470;-82
2023/03/02 12:00:51;;;;;;;10.30;8.20;;;10.60;51.40;;;;;;4959527;29;20449;-84
2023/03/02 12:03:29;;;;;;;14.60;9.00;;;10.70;51.30;;;;;;4960561;28;20457;-82
2023/03/02 12:06:05;;;;;;;10.07;8.37;;;10.60;51.10;;;;;;4973956;28;20487;-81
2023/03/02 12:08:39;;;;;;;10.77;8.40;;;10.70;51.30;;;;;;4962045;28;20462;-82
2023/03/02 12:11:34;;;;;;;11.53;8.13;;;10.60;51.20;;;;;;4979352;28;20449;-84
2023/03/02 12:14:05;;;;;;;8.67;7.77;;;10.50;51.20;;;;;;4961590;28;20540;-82
2023/03/02 12:16:39;;;;;;;10.20;8.33;;;10.60;51.50;;;;;;4962685;28;20473;-83
2023/03/02 12:19:15;;;;;;;12.13;8.43;;;10.60;51.40;;;;;;4963772;28;20485;-82
2023/03/02 12:21:55;;;;;;;11.70;8.17;;;10.70;51.50;;;;;;4976271;28;20461;-83
2023/03/02 12:24:34;;;;;;;10.60;7.30;;;10.80;51.50;;;;;;4964593;28;20479;-85
2023/03/02 12:27:24;;;;;;;11.77;9.20;;;10.80;51.30;;;;;;4962694;28;20480;-83
2023/03/02 12:30:17;;;;;;;9.13;7.47;;;10.90;51.30;;;;;;4961649;28;20477;-83
2023/03/02 12:32:57;;;;;;;9.00;7.87;;;11.00;51.30;;;;;;4961110;28;20457;-82
2023/03/02 12:35:25;;;;;;;11.97;8.07;;;11.00;50.90;;;;;;4960966;28;20510;-83
2023/03/02 12:37:58;;;;;;;11.73;8.40;;;11.10;50.90;;;;;;4958945;28;20446;-82
2023/03/02 12:40:56;;;;;;;13.43;7.97;;;11.10;50.80;;;;;;4962115;28;20532;-82
2023/03/02 12:43:32;;;;;;;10.53;8.30;;;11.40;51.00;;;;;;4960925;28;20453;-83
2023/03/02 12:46:27;;;;;;;11.63;8.27;;;12.30;49.50;;;;;;4961007;28;20470;-82
2023/03/02 12:49:19;;;;;;;9.60;7.47;;;12.30;48.70;;;;;;4960687;28;20472;-83
2023/03/02 12:51:58;;;;;;;9.70;7.20;;;12.20;48.60;;;;;;4962480;28;20457;-83
2023/03/02 12:54:30;;;;;;;9.40;7.37;;;12.10;48.60;;;;;;4961186;28;20499;-82
2023/03/02 12:57:15;;;;;;;12.13;9.10;;;12.30;48.80;;;;;;4961575;28;20549;-82
2023/03/02 12:59:58;;;;;;;8.83;7.50;;;12.60;48.40;;;;;;4961916;28;20460;-81
2023/03/02 13:02:29;;;;;;;11.80;8.90;;;12.50;48.10;;;;;;4960538;28;20555;-82
2023/03/02 13:05:05;;;;;;;8.57;7.47;;;12.80;48.30;;;;;;4960183;28;20465;-84
2023/03/02 13:07:42;;;;;;;8.63;7.50;;;14.10;47.20;;;;;;4963940;28;20445;-83
2023/03/02 13:10:47;;;;;;;9.63;8.00;;;14.00;46.40;;;;;;4959291;28;20457;-81
2023/03/02 13:13:36;;;;;;;9.13;7.13;;;14.50;46.20;;;;;;4962394;28;20465;-83
2023/03/02 13:16:28;;;;;;;9.90;7.27;;;15.40;44.20;;;;;;4974153;28;20481;-83
2023/03/02 13:18:59;;;;;;;9.37;8.20;;;15.10;44.10;;;;;;4959445;28;20548;-83
2023/03/02 13:21:38;;;;;;;8.23;7.37;;;15.60;44.40;;;;;;4960081;28;20467;-82
2023/03/02 13:24:27;;;;;;;9.73;8.73;;;16.80;42.20;;;;;;4958826;28;20498;-83
2023/03/02 13:27:03;;;;;;;9.63;7.80;;;17.00;41.10;;;;;;4957698;28;20484;-82
2023/03/02 13:29:35;;;;;;;8.23;7.13;;;16.80;40.80;;;;;;4954628;28;20480;-82
2023/03/02 13:32:32;;;;;;;8.60;7.70;;;16.40;41.00;;;;;;4958348;28;20724;-83
2023/03/02 13:35:03;;;;;;;7.83;6.93;;;16.10;41.20;;;;;;4958191;28;20496;-83
2023/03/02 13:37:44;;;;;;;9.70;7.27;;;15.90;41.30;;;;;;4957461;28;20446;-82
2023/03/02 13:40:45;;;;;;;8.67;7.40;;;16.10;41.60;;;;;;4959792;28;20461;-85
2023/03/02 13:43:29;;;;;;;12.37;8.70;;;16.00;41.40;;;;;;4957328;28;21292;-84
2023/03/02 13:46:16;;;;;;;7.90;6.73;;;16.60;41.40;;;;;;4959107;28;20484;-84
2023/03/02 13:49:05;;;;;;;8.43;7.50;;;17.40;40.10;;;;;;4951708;28;20466;-82
2023/03/02 13:52:00;;;;;;;10.10;9.07;;;17.80;38.60;;;;;;4956291;28;20467;-83
2023/03/02 13:54:48;;;;;;;8.93;8.03;;;17.10;38.80;;;;;;4949335;28;20504;-84
2023/03/02 13:57:48;;;;;;;6.97;6.33;;;16.70;39.20;;;;;;4958829;28;20472;-83
2023/03/02 14:00:34;;;;;;;10.20;7.43;;;16.40;39.90;;;;;;4942509;28;20496;-80
2023/03/02 14:03:11;;;;;;;8.83;7.20;;;16.30;40.00;;;;;;4960756;28;20483;-83
2023/03/02 14:06:01;;;;;;;12.90;8.00;;;16.20;40.20;;;;;;4943757;28;20477;-84
2023/03/02 14:08:34;;;;;;;10.10;7.27;;;16.30;40.00;;;;;;4947497;29;20448;-82
2023/03/02 14:11:14;;;;;;;7.97;6.70;;;16.00;40.00;;;;;;4950350;29;20475;-84
2023/03/02 14:13:58;;;;;;;8.77;7.10;;;15.50;40.70;;;;;;4951359;29;20971;-84
2023/03/02 14:16:28;;;;;;;8.50;6.70;;;15.10;41.20;;;;;;4953573;28;20476;-82
2023/03/02 14:18:56;;;;;;;7.90;6.73;;;15.00;41.20;;;;;;4956801;28;20453;-82
2023/03/02 14:21:28;;;;;;;7.90;7.10;;;15.10;41.20;;;;;;4956810;28;20459;-82
2023/03/02 14:24:03;;;;;;;9.17;7.60;;;14.60;41.60;;;;;;4957806;28;20456;-83
2023/03/02 14:26:46;;;;;;;9.17;7.70;;;14.50;42.20;;;;;;4949762;28;20480;-82
2023/03/02 14:29:27;;;;;;;8.13;6.77;;;14.20;42.20;;;;;;4946171;29;20460;-83
2023/03/02 14:32:05;;;;;;;11.20;6.60;;;14.10;42.60;;;;;;4948767;29;20453;-83
2023/03/02 14:34:48;;;;;;;9.47;7.13;;;14.00;42.50;;;;;;4954126;28;20486;-82
2023/03/02 14:37:23;;;;;;;7.10;6.40;;;14.00;42.80;;;;;;4953893;28;20521;-82
2023/03/02 14:39:54;;;;;;;7.67;6.43;;;14.00;42.90;;;;;;4956043;28;20437;-81
2023/03/02 14:42:27;;;;;;;8.30;7.07;;;13.70;43.00;;;;;;4954072;29;21001;-82
2023/03/02 14:45:11;;;;;;;7.77;6.20;;;13.80;43.20;;;;;;4951150;29;20500;-83
2023/03/02 14:47:49;;;;;;;8.10;6.63;;;13.80;43.20;;;;;;4950582;29;20445;-83
2023/03/02 14:50:27;;;;;;;6.73;5.60;;;13.70;43.30;;;;;;4950167;29;20588;-83
2023/03/02 14:52:58;;;;;;;7.53;5.60;;;13.50;43.20;;;;;;4932351;29;20548;-83
2023/03/02 14:55:31;;;;;;;7.40;6.30;;;13.80;43.10;;;;;;4950283;29;20503;-81
2023/03/02 14:58:18;;;;;;;6.47;5.40;;;13.90;43.10;;;;;;4947106;29;20448;-82
2023/03/02 15:01:02;;;;;;;6.50;5.80;;;13.60;43.30;;;;;;4965777;28;20449;-85
2023/03/02 15:03:38;;;;;;;8.63;6.50;;;13.80;43.30;;;;;;4935173;29;20467;-82
2023/03/02 15:06:33;;;;;;;5.90;5.37;;;13.90;43.20;;;;;;4949108;29;20520;-83
2023/03/02 15:09:11;;;;;;;7.83;6.30;;;13.70;43.40;;;;;;4954342;29;20460;-82
2023/03/02 15:12:02;;;;;;;9.00;6.60;;;13.50;43.50;;;;;;4959236;28;20469;-82
2023/03/02 15:14:37;;;;;;;6.87;5.57;;;13.60;43.20;;;;;;4950983;29;20440;-84
2023/03/02 15:17:32;;;;;;;7.10;5.27;;;13.60;43.10;;;;;;4948934;29;20472;-82
2023/03/02 15:20:05;;;;;;;7.30;5.50;;;13.40;43.30;;;;;;4951911;29;20433;-83
2023/03/02 15:22:36;;;;;;;6.00;5.40;;;13.50;43.30;;;;;;4954807;29;20447;-85
2023/03/02 15:25:07;;;;;;;8.33;5.30;;;13.50;43.00;;;;;;4954938;28;20509;-83
2023/03/02 15:27:43;;;;;;;10.93;5.50;;;13.40;43.20;;;;;;4954991;29;20487;-82